Time;durP1;ratioP1;P1;durP2;ratioP2;P2;SDS_P1;SDS_P2;PMS_P1;PMS_P2;Temp;Humidity;BMP_temperature;BMP_pressure;BME280_temperature;BME280_humidity;BME280_pressure;Samples;Min_cycle;Max_cycle;Signal;HPM_P1;HPM_P2
2023/10/18 00:01:29;;;;;;;10.10;5.63;;;-0.30;99.90;;;;;;4930319;29;20106;-66
2023/10/18 00:03:56;;;;;;;10.90;6.03;;;-0.30;99.90;;;;;;4928103;29;20031;-65
2023/10/18 00:06:23;;;;;;;8.68;4.85;;;-0.30;99.90;;;;;;4928071;28;20019;-65
2023/10/18 00:08:49;;;;;;;10.85;5.13;;;-0.30;99.90;;;;;;4930225;29;20027;-66
2023/10/18 00:11:16;;;;;;;13.15;5.93;;;-0.30;99.90;;;;;;4926855;28;20153;-65
2023/10/18 00:13:42;;;;;;;11.18;5.45;;;-0.30;99.90;;;;;;4928177;29;20039;-65
2023/10/18 00:16:08;;;;;;;11.70;5.10;;;-0.40;99.90;;;;;;4931720;29;20043;-65
2023/10/18 00:18:35;;;;;;;7.88;4.70;;;-0.40;99.90;;;;;;4928766;28;20024;-66
2023/10/18 00:21:06;;;;;;;10.57;5.03;;;-0.40;99.90;;;;;;4926440;28;20028;-65
2023/10/18 00:23:32;;;;;;;9.90;4.35;;;-0.40;99.90;;;;;;4929957;28;20043;-65
2023/10/18 00:26:08;;;;;;;8.95;5.82;;;-0.40;99.90;;;;;;4930926;28;20404;-65
2023/10/18 00:28:37;;;;;;;8.18;5.05;;;-0.40;99.90;;;;;;4930450;28;20628;-66
2023/10/18 00:31:11;;;;;;;7.15;5.13;;;-0.40;99.90;;;;;;4933253;28;20038;-66
2023/10/18 00:33:38;;;;;;;8.30;4.22;;;-0.40;99.90;;;;;;4932235;29;20035;-65
2023/10/18 00:36:03;;;;;;;8.70;4.65;;;-0.40;99.90;;;;;;4931729;28;20064;-65
2023/10/18 00:38:29;;;;;;;6.47;4.45;;;-0.40;99.90;;;;;;4923034;28;20047;-65
2023/10/18 00:40:56;;;;;;;7.57;5.00;;;-0.40;99.90;;;;;;4933366;29;20164;-66
2023/10/18 00:43:28;;;;;;;9.75;4.55;;;-0.50;99.90;;;;;;4929499;29;20024;-65
2023/10/18 00:45:55;;;;;;;7.70;4.78;;;-0.40;99.90;;;;;;4932069;28;20024;-65
2023/10/18 00:48:24;;;;;;;5.97;3.92;;;-0.50;99.90;;;;;;4933926;29;20035;-65
2023/10/18 00:50:55;;;;;;;7.20;4.30;;;-0.50;99.90;;;;;;4927496;28;20075;-64
2023/10/18 00:53:23;;;;;;;6.78;4.80;;;-0.60;99.90;;;;;;4927791;28;20036;-65
2023/10/18 00:55:53;;;;;;;7.13;4.40;;;-0.60;99.90;;;;;;4926877;29;20055;-65
2023/10/18 00:58:22;;;;;;;6.00;4.65;;;-0.60;99.90;;;;;;4929086;29;20063;-66
2023/10/18 01:00:48;;;;;;;7.07;4.38;;;-0.60;99.90;;;;;;4931900;29;20618;-65
2023/10/18 01:03:32;;;;;;;7.65;4.65;;;-0.60;99.90;;;;;;4929918;28;20027;-65
2023/10/18 01:06:04;;;;;;;6.30;4.57;;;-0.60;99.90;;;;;;4928902;29;20030;-66
2023/10/18 01:08:30;;;;;;;8.35;4.47;;;-0.60;99.90;;;;;;4932750;28;20464;-65
2023/10/18 01:11:06;;;;;;;6.75;3.97;;;-0.70;99.90;;;;;;4928947;29;20056;-66
2023/10/18 01:13:37;;;;;;;9.25;5.22;;;-0.70;99.90;;;;;;4931132;28;20046;-66
2023/10/18 01:16:06;;;;;;;8.50;5.05;;;-0.60;99.90;;;;;;4932406;29;20031;-65
2023/10/18 01:18:31;;;;;;;9.40;5.30;;;-0.60;99.90;;;;;;4928714;29;20511;-65
2023/10/18 01:20:57;;;;;;;6.43;4.63;;;-0.70;99.90;;;;;;4930221;29;20059;-66
2023/10/18 01:23:23;;;;;;;7.63;4.70;;;-0.70;99.90;;;;;;4931368;28;20039;-66
2023/10/18 01:25:49;;;;;;;8.98;4.72;;;-0.70;99.90;;;;;;4929387;28;20051;-66
2023/10/18 01:28:14;;;;;;;8.88;4.82;;;-0.70;99.90;;;;;;4932060;29;20071;-66
2023/10/18 01:30:39;;;;;;;7.43;4.60;;;-0.70;99.90;;;;;;4933062;29;20034;-66
2023/10/18 01:33:10;;;;;;;7.82;4.78;;;-0.70;99.90;;;;;;4933977;29;20039;-66
2023/10/18 01:35:36;;;;;;;7.63;4.38;;;-0.80;99.90;;;;;;4926045;29;20090;-66
2023/10/18 01:38:05;;;;;;;7.65;4.00;;;-0.70;99.90;;;;;;4924892;29;20032;-66
2023/10/18 01:40:41;;;;;;;8.45;5.28;;;-0.80;99.90;;;;;;4927631;29;20050;-66
2023/10/18 01:43:10;;;;;;;7.72;5.22;;;-0.80;99.90;;;;;;4925189;29;20038;-65
2023/10/18 01:45:38;;;;;;;9.25;5.53;;;-0.70;99.90;;;;;;4931571;28;20111;-65
2023/10/18 01:48:09;;;;;;;6.72;4.45;;;-0.70;99.90;;;;;;4933501;28;20507;-66
2023/10/18 01:50:38;;;;;;;10.45;5.18;;;-0.80;99.90;;;;;;4933919;28;20027;-67
2023/10/18 01:53:04;;;;;;;6.03;4.15;;;-0.80;99.90;;;;;;4931147;29;20114;-66
2023/10/18 01:55:31;;;;;;;7.57;5.47;;;-0.80;99.90;;;;;;4924980;29;20110;-66
2023/10/18 01:57:58;;;;;;;7.78;5.22;;;-0.80;99.90;;;;;;4931900;28;20023;-66
2023/10/18 02:00:34;;;;;;;8.82;5.40;;;-0.80;99.90;;;;;;4929295;29;20524;-65
2023/10/18 02:03:01;;;;;;;9.45;4.97;;;-0.80;99.90;;;;;;4924651;28;20034;-65
2023/10/18 02:05:27;;;;;;;7.68;5.22;;;-0.80;99.90;;;;;;4931976;29;20033;-67
2023/10/18 02:07:55;;;;;;;6.93;4.72;;;-0.80;99.90;;;;;;4931764;29;20023;-65
2023/10/18 02:10:22;;;;;;;8.40;5.38;;;-0.90;99.90;;;;;;4928344;29;20024;-66
2023/10/18 02:12:48;;;;;;;8.20;5.20;;;-0.90;99.90;;;;;;4929424;29;20201;-65
2023/10/18 02:15:15;;;;;;;7.43;5.05;;;-0.90;99.90;;;;;;4933103;29;20114;-66
2023/10/18 02:17:43;;;;;;;9.80;5.50;;;-0.90;99.90;;;;;;4928908;28;20480;-66
2023/10/18 02:20:25;;;;;;;7.28;4.85;;;-0.90;99.90;;;;;;4931139;28;20031;-66
2023/10/18 02:22:50;;;;;;;8.60;5.35;;;-0.90;99.90;;;;;;4924661;29;20047;-64
2023/10/18 02:25:30;;;;;;;11.18;5.45;;;-0.90;99.90;;;;;;4928542;29;20043;-66
2023/10/18 02:27:59;;;;;;;10.98;5.55;;;-0.90;99.90;;;;;;4930541;28;20476;-66
2023/10/18 02:30:24;;;;;;;9.35;5.72;;;-0.90;99.90;;;;;;4930148;28;20039;-65
2023/10/18 02:32:50;;;;;;;8.98;5.30;;;-0.90;99.90;;;;;;4932949;29;20027;-64
2023/10/18 02:35:19;;;;;;;10.07;5.75;;;-1.00;99.90;;;;;;4927413;28;20028;-66
2023/10/18 02:37:45;;;;;;;9.85;6.35;;;-0.90;99.90;;;;;;4926806;28;20519;-52
2023/10/18 02:40:28;;;;;;;8.70;5.55;;;-1.00;99.90;;;;;;4924321;29;20160;-53
2023/10/18 02:42:55;;;;;;;9.55;5.82;;;-1.00;99.90;;;;;;4924179;29;20050;-53
2023/10/18 02:45:22;;;;;;;12.27;5.65;;;-1.00;99.90;;;;;;4927898;28;20122;-60
2023/10/18 02:47:51;;;;;;;9.20;6.03;;;-1.00;99.90;;;;;;4927252;28;20027;-61
2023/10/18 02:50:17;;;;;;;10.30;4.75;;;-1.00;99.90;;;;;;4930965;29;20039;-61
2023/10/18 02:52:45;;;;;;;10.13;6.40;;;-1.00;99.90;;;;;;4929226;29;20024;-62
2023/10/18 02:55:18;;;;;;;8.27;5.22;;;-1.00;99.90;;;;;;4928252;28;20114;-62
2023/10/18 02:57:46;;;;;;;8.35;5.93;;;-1.00;99.90;;;;;;4928048;28;20616;-61
2023/10/18 03:00:13;;;;;;;12.48;6.43;;;-1.00;99.90;;;;;;4927980;28;20064;-62
2023/10/18 03:02:39;;;;;;;8.48;5.25;;;-1.00;99.90;;;;;;4926810;29;20019;-61
2023/10/18 03:05:08;;;;;;;7.07;4.75;;;-1.00;99.90;;;;;;4929291;28;20387;-61
2023/10/18 03:07:36;;;;;;;13.18;5.80;;;-1.10;99.90;;;;;;4927382;29;20040;-61
2023/10/18 03:10:11;;;;;;;8.57;5.40;;;-1.00;99.90;;;;;;4929704;28;20039;-60
2023/10/18 03:12:38;;;;;;;5.57;3.47;;;-1.00;99.90;;;;;;4930695;29;20031;-60
2023/10/18 03:15:12;;;;;;;10.40;6.05;;;-1.00;99.90;;;;;;4926984;29;20047;-60
2023/10/18 03:17:37;;;;;;;8.55;5.80;;;-1.10;99.90;;;;;;4921734;29;20693;-61
2023/10/18 03:20:26;;;;;;;7.95;4.90;;;-1.10;99.90;;;;;;4926634;29;20032;-61
2023/10/18 03:22:51;;;;;;;8.75;5.40;;;-1.10;99.90;;;;;;4929187;29;20040;-59
2023/10/18 03:25:16;;;;;;;10.32;5.90;;;-1.10;99.90;;;;;;4927778;28;20062;-61
2023/10/18 03:27:49;;;;;;;12.00;5.93;;;-1.10;99.90;;;;;;4930343;29;20140;-62
2023/10/18 03:30:23;;;;;;;7.32;4.78;;;-1.10;99.90;;;;;;4926930;29;20036;-61
2023/10/18 03:32:53;;;;;;;10.63;5.30;;;-1.10;99.90;;;;;;4924434;29;20095;-61
2023/10/18 03:35:22;;;;;;;9.55;5.13;;;-1.10;99.90;;;;;;4925976;29;20125;-61
2023/10/18 03:37:48;;;;;;;11.63;6.05;;;-1.10;99.90;;;;;;4924383;29;20031;-61
2023/10/18 03:40:22;;;;;;;11.00;6.60;;;-1.10;99.90;;;;;;4928495;28;20086;-61
2023/10/18 03:42:50;;;;;;;12.90;7.18;;;-1.20;99.90;;;;;;4930345;29;20085;-61
2023/10/18 03:45:20;;;;;;;14.63;7.10;;;-1.20;99.90;;;;;;4923769;29;20123;-60
2023/10/18 03:47:57;;;;;;;20.60;10.98;;;-1.20;99.90;;;;;;4927207;28;20153;-61
2023/10/18 03:50:30;;;;;;;13.55;8.07;;;-1.20;99.90;;;;;;4926370;29;20047;-62
2023/10/18 03:52:57;;;;;;;15.48;8.77;;;-1.20;99.90;;;;;;4929117;29;20090;-60
2023/10/18 03:55:36;;;;;;;14.30;8.20;;;-1.20;99.90;;;;;;4927514;28;20062;-61
2023/10/18 03:58:04;;;;;;;17.67;9.45;;;-1.20;99.90;;;;;;4919742;29;20040;-61
2023/10/18 04:00:37;;;;;;;20.67;10.38;;;-1.20;99.90;;;;;;4929018;29;20055;-62
2023/10/18 04:03:08;;;;;;;15.15;6.72;;;-1.20;99.90;;;;;;4932977;29;20031;-62
2023/10/18 04:07:59;;;;;;;11.25;6.97;;;-1.20;99.90;;;;;;4933142;29;20040;-61
2023/10/18 04:10:24;;;;;;;10.15;6.28;;;-1.20;99.90;;;;;;4930459;29;20031;-61
2023/10/18 04:12:50;;;;;;;9.60;5.85;;;-1.20;99.90;;;;;;4931169;29;20027;-60
2023/10/18 04:15:22;;;;;;;10.88;5.95;;;-1.20;99.90;;;;;;4928467;29;20043;-61
2023/10/18 04:18:30;;;;;;;9.73;5.78;;;-1.20;99.90;;;;;;4925818;29;20028;-60
2023/10/18 04:20:46;;;;;;;9.57;5.97;;;-1.20;99.90;;;;;;4917768;29;20047;-61
2023/10/18 04:23:14;;;;;;;8.13;4.95;;;-1.20;99.90;;;;;;4923360;29;20054;-62
2023/10/18 04:25:40;;;;;;;9.80;5.32;;;-1.20;99.90;;;;;;4925816;29;20058;-62
2023/10/18 04:28:06;;;;;;;9.05;5.47;;;-1.20;99.90;;;;;;4929299;29;20644;-61
2023/10/18 04:30:32;;;;;;;8.57;5.32;;;-1.20;99.90;;;;;;4931705;29;20028;-61
2023/10/18 04:33:12;;;;;;;8.55;4.47;;;-1.20;99.90;;;;;;4927102;28;20103;-61
2023/10/18 04:35:45;;;;;;;6.15;4.32;;;-1.20;99.90;;;;;;4933037;29;20440;-61
2023/10/18 04:41:03;;;;;;;6.18;4.57;;;-1.20;99.90;;;;;;4923546;29;20086;-61
2023/10/18 04:43:32;;;;;;;9.48;5.00;;;-1.20;99.90;;;;;;4925333;29;20103;-61
2023/10/18 04:45:59;;;;;;;5.20;3.95;;;-1.20;99.90;;;;;;4925083;29;20559;-61
2023/10/18 04:51:26;;;;;;;7.47;5.00;;;-1.30;99.90;;;;;;4925092;29;20468;-62
2023/10/18 04:54:15;;;;;;;6.25;4.63;;;-1.30;99.90;;;;;;4923862;29;20019;-61
2023/10/18 04:56:44;;;;;;;9.50;4.72;;;-1.20;99.90;;;;;;4923560;29;20038;-61
2023/10/18 05:01:56;;;;;;;9.32;4.68;;;-1.20;99.90;;;;;;4924739;29;20043;-62
2023/10/18 05:04:29;;;;;;;7.88;5.00;;;-1.20;99.90;;;;;;4922726;29;20047;-61
2023/10/18 05:06:56;;;;;;;8.82;4.78;;;-1.20;99.90;;;;;;4923328;29;20094;-61
2023/10/18 05:09:31;;;;;;;7.18;4.15;;;-1.20;99.90;;;;;;4922770;29;20175;-61
2023/10/18 05:12:07;;;;;;;8.07;4.07;;;-1.20;99.90;;;;;;4923146;29;20443;-62
2023/10/18 05:14:42;;;;;;;7.40;4.22;;;-1.20;99.90;;;;;;4921469;29;20118;-61
2023/10/18 05:17:11;;;;;;;9.30;4.22;;;-1.30;99.90;;;;;;4924452;29;20027;-61
2023/10/18 05:19:43;;;;;;;6.40;4.38;;;-1.30;99.90;;;;;;4924425;29;20032;-61
2023/10/18 05:22:09;;;;;;;6.97;4.13;;;-1.30;99.90;;;;;;4932266;29;20023;-55
2023/10/18 05:24:38;;;;;;;8.77;4.72;;;-1.30;99.90;;;;;;4924815;29;20404;-66
2023/10/18 05:27:19;;;;;;;9.30;4.88;;;-1.30;99.90;;;;;;4928755;28;20059;-54
2023/10/18 05:29:52;;;;;;;9.68;5.25;;;-1.30;99.90;;;;;;4932037;29;20027;-55
2023/10/18 05:37:51;;;;;;;5.95;4.05;;;-1.20;99.90;;;;;;4920057;29;20426;-53
2023/10/18 05:40:45;;;;;;;7.57;4.70;;;-1.30;99.90;;;;;;4925942;29;20050;-54
2023/10/18 05:43:22;;;;;;;6.18;3.83;;;-1.30;99.90;;;;;;4922753;29;20030;-55
2023/10/18 05:45:48;;;;;;;6.13;3.75;;;-1.30;99.90;;;;;;4928532;29;20118;-55
2023/10/18 05:48:16;;;;;;;7.05;3.78;;;-1.30;99.90;;;;;;4928863;28;20107;-54
2023/10/18 05:50:49;;;;;;;6.07;3.38;;;-1.30;99.90;;;;;;4929125;28;20153;-55
2023/10/18 05:53:18;;;;;;;8.40;4.97;;;-1.30;99.90;;;;;;4930465;28;20027;-54
2023/10/18 05:55:52;;;;;;;10.07;4.85;;;-1.20;99.90;;;;;;4927596;29;20031;-57
2023/10/18 05:58:25;;;;;;;9.68;4.55;;;-1.20;99.90;;;;;;4928311;28;20042;-54
2023/10/18 06:01:02;;;;;;;8.77;4.35;;;-1.20;99.90;;;;;;4930410;29;20074;-54
2023/10/18 06:03:39;;;;;;;8.43;4.95;;;-1.10;99.90;;;;;;4925497;29;20027;-55
2023/10/18 06:06:05;;;;;;;6.82;4.65;;;-1.10;99.90;;;;;;4924711;29;20023;-55
2023/10/18 06:08:31;;;;;;;11.38;5.35;;;-1.10;99.90;;;;;;4928353;29;20094;-53
2023/10/18 06:11:00;;;;;;;13.38;7.03;;;-1.00;99.90;;;;;;4929516;29;20035;-55
2023/10/18 06:13:27;;;;;;;13.20;7.72;;;-1.00;99.90;;;;;;4926583;28;20499;-56
2023/10/18 06:15:58;;;;;;;13.63;7.47;;;-0.90;99.90;;;;;;4930468;29;20053;-54
2023/10/18 06:18:30;;;;;;;14.50;7.32;;;-0.80;99.90;;;;;;4927250;28;20039;-56
2023/10/18 06:20:59;;;;;;;14.57;7.85;;;-0.80;99.90;;;;;;4925544;28;20071;-56
2023/10/18 06:25:50;;;;;;;9.25;5.20;;;-0.50;99.90;;;;;;4930198;29;20499;-54
2023/10/18 06:28:21;;;;;;;8.77;5.15;;;-0.20;99.90;;;;;;4926486;29;20083;-56
2023/10/18 06:30:54;;;;;;;9.00;5.68;;;0.20;99.90;;;;;;4928943;28;20024;-55
2023/10/18 06:33:21;;;;;;;12.52;5.57;;;0.70;99.90;;;;;;4930069;29;20081;-56
2023/10/18 06:35:53;;;;;;;8.98;5.68;;;1.20;99.90;;;;;;4925604;29;20114;-56
2023/10/18 06:38:23;;;;;;;7.38;4.88;;;1.70;99.90;;;;;;4918004;29;20499;-52
2023/10/18 06:40:59;;;;;;;5.38;3.92;;;2.20;99.90;;;;;;4925164;29;20038;-54
2023/10/18 06:43:25;;;;;;;8.13;4.75;;;2.70;99.90;;;;;;4927522;29;20050;-50
2023/10/18 06:45:53;;;;;;;7.80;4.65;;;3.10;99.90;;;;;;4929108;28;20473;-59
2023/10/18 06:48:19;;;;;;;5.00;3.92;;;3.60;99.90;;;;;;4924744;28;20030;-58
2023/10/18 06:50:46;;;;;;;7.82;5.43;;;3.80;99.90;;;;;;4923716;29;20474;-59
2023/10/18 06:53:14;;;;;;;9.45;5.13;;;3.80;99.90;;;;;;4923948;29;20023;-61
2023/10/18 06:58:12;;;;;;;8.45;5.05;;;3.30;99.90;;;;;;4928105;29;20580;-60
2023/10/18 07:00:46;;;;;;;8.20;5.20;;;3.10;99.90;;;;;;4925320;28;20536;-59
2023/10/18 07:03:16;;;;;;;9.80;5.25;;;3.00;99.90;;;;;;4923317;29;20051;-60
2023/10/18 07:05:52;;;;;;;11.70;5.63;;;2.80;99.90;;;;;;4929619;29;20028;-59
2023/10/18 07:08:25;;;;;;;8.98;5.88;;;2.60;99.90;;;;;;4926730;28;20035;-59
2023/10/18 07:10:57;;;;;;;12.15;7.05;;;2.50;99.90;;;;;;4920280;29;20028;-59
2023/10/18 07:13:33;;;;;;;11.82;6.10;;;2.60;99.90;;;;;;4925698;28;20031;-59
2023/10/18 07:16:05;;;;;;;16.50;6.20;;;2.60;99.90;;;;;;4923335;29;20466;-59
2023/10/18 07:18:33;;;;;;;11.57;6.30;;;2.70;99.90;;;;;;4926599;28;20111;-59
2023/10/18 07:21:05;;;;;;;10.63;5.80;;;2.80;99.90;;;;;;4928450;28;20027;-58
2023/10/18 07:23:31;;;;;;;14.65;6.15;;;2.90;99.90;;;;;;4928215;28;20119;-59
2023/10/18 07:25:56;;;;;;;9.00;4.65;;;3.10;99.90;;;;;;4921005;29;20131;-58
2023/10/18 07:28:22;;;;;;;12.65;5.30;;;3.40;99.90;;;;;;4927068;29;20473;-60
2023/10/18 07:30:48;;;;;;;11.05;4.80;;;3.80;99.90;;;;;;4929338;29;20028;-60
2023/10/18 07:33:15;;;;;;;6.15;4.57;;;4.30;99.90;;;;;;4923903;29;20024;-59
2023/10/18 07:35:45;;;;;;;8.68;4.82;;;4.90;99.90;;;;;;4928920;28;20020;-59
2023/10/18 07:38:11;;;;;;;11.27;4.40;;;5.60;99.90;;;;;;4924772;28;20455;-59
2023/10/18 07:40:40;;;;;;;5.03;3.75;;;6.30;99.90;;;;;;4933126;29;20066;-59
2023/10/18 07:43:12;;;;;;;4.13;3.50;;;6.90;99.90;;;;;;4929852;29;20043;-59
2023/10/18 07:45:39;;;;;;;5.78;3.85;;;7.40;99.90;;;;;;4931519;28;20063;-60
2023/10/18 07:48:05;;;;;;;3.83;3.15;;;8.00;99.90;;;;;;4924946;29;20028;-59
2023/10/18 07:53:06;;;;;;;4.50;3.65;;;8.70;99.90;;;;;;4922972;29;20062;-59
2023/10/18 07:55:41;;;;;;;3.70;3.00;;;8.70;99.90;;;;;;4931447;28;20023;-59
2023/10/18 07:58:17;;;;;;;4.50;2.92;;;9.00;99.90;;;;;;4933304;28;20535;-57
2023/10/18 08:01:07;;;;;;;3.53;2.80;;;9.20;99.90;;;;;;4932021;29;20106;-60
2023/10/18 08:03:32;;;;;;;2.97;2.50;;;9.50;99.90;;;;;;4928000;29;20410;-59
2023/10/18 08:05:59;;;;;;;3.67;2.88;;;9.80;99.90;;;;;;4929193;29;20496;-59
2023/10/18 08:08:26;;;;;;;3.83;2.97;;;10.20;99.90;;;;;;4924603;29;20036;-59
2023/10/18 08:10:55;;;;;;;6.38;3.90;;;10.30;99.90;;;;;;4930788;29;20027;-59
2023/10/18 08:13:26;;;;;;;5.40;3.30;;;10.50;99.90;;;;;;4924820;28;20696;-61
2023/10/18 08:15:53;;;;;;;4.30;2.70;;;10.80;99.90;;;;;;4933415;29;20038;-59
2023/10/18 08:18:21;;;;;;;4.45;3.42;;;11.00;99.90;;;;;;4927829;29;20026;-59
2023/10/18 08:23:34;;;;;;;4.60;3.38;;;11.30;99.90;;;;;;4933598;29;20040;-59
2023/10/18 08:26:05;;;;;;;5.85;3.88;;;11.40;97.90;;;;;;4930779;29;20380;-60
2023/10/18 08:28:38;;;;;;;5.35;3.53;;;11.50;93.50;;;;;;4926177;29;20039;-59
2023/10/18 08:31:33;;;;;;;4.55;3.72;;;11.50;93.30;;;;;;4929247;28;20118;-59
2023/10/18 08:34:05;;;;;;;4.45;3.40;;;11.60;92.50;;;;;;4928156;29;20031;-60
2023/10/18 08:36:34;;;;;;;3.67;3.30;;;12.00;96.40;;;;;;4924982;28;20464;-60
2023/10/18 08:39:01;;;;;;;3.47;2.97;;;12.00;92.10;;;;;;4925580;29;20051;-60
2023/10/18 08:41:37;;;;;;;4.35;2.67;;;11.80;91.10;;;;;;4932290;29;20015;-59
2023/10/18 08:44:19;;;;;;;4.15;3.50;;;11.90;92.10;;;;;;4929354;29;20031;-57
2023/10/18 08:46:53;;;;;;;10.02;5.53;;;12.00;91.60;;;;;;4927768;28;20031;-39
2023/10/18 08:49:32;;;;;;;9.45;5.55;;;13.10;92.10;;;;;;4926146;29;20044;-58
2023/10/18 08:52:06;;;;;;;5.80;4.03;;;14.30;73.00;;;;;;4931246;29;20054;-57
2023/10/18 08:54:33;;;;;;;3.67;3.08;;;14.10;77.50;;;;;;4931809;29;20162;-58
2023/10/18 08:57:06;;;;;;;11.15;4.95;;;13.90;80.40;;;;;;4927848;29;20167;-58
2023/10/18 08:59:39;;;;;;;6.03;4.43;;;13.90;81.40;;;;;;4930391;28;20024;-58
2023/10/18 09:02:12;;;;;;;6.75;5.22;;;13.90;82.70;;;;;;4929304;28;20040;-59
2023/10/18 09:04:38;;;;;;;3.78;2.90;;;13.80;82.20;;;;;;4931652;29;20023;-62
2023/10/18 09:07:18;;;;;;;8.82;5.18;;;13.70;81.80;;;;;;4928513;29;20038;-60
2023/10/18 09:09:54;;;;;;;6.03;4.07;;;13.80;83.70;;;;;;4925242;28;20115;-60
2023/10/18 09:12:32;;;;;;;7.03;4.63;;;13.70;81.40;;;;;;4933189;29;20501;-60
2023/10/18 09:14:58;;;;;;;3.95;2.90;;;13.60;80.00;;;;;;4928383;29;20718;-60
2023/10/18 09:17:24;;;;;;;5.05;3.47;;;13.50;79.00;;;;;;4924727;28;20023;-60
2023/10/18 09:19:53;;;;;;;3.60;3.13;;;13.40;78.00;;;;;;4932037;28;20381;-60
2023/10/18 09:22:19;;;;;;;4.05;2.83;;;13.40;77.00;;;;;;4930466;29;20115;-61
2023/10/18 09:24:46;;;;;;;5.80;3.55;;;13.20;77.00;;;;;;4928333;28;20043;-60
2023/10/18 09:27:12;;;;;;;4.40;2.80;;;13.30;76.20;;;;;;4932084;29;20022;-60
2023/10/18 09:29:39;;;;;;;2.88;2.33;;;13.40;75.70;;;;;;4931857;29;20031;-60
2023/10/18 09:32:09;;;;;;;3.22;2.53;;;13.50;74.70;;;;;;4929982;29;20637;-60
2023/10/18 09:34:38;;;;;;;5.30;2.60;;;13.50;73.10;;;;;;4929888;29;20028;-60
2023/10/18 09:37:11;;;;;;;3.83;2.30;;;13.40;71.70;;;;;;4923638;28;20027;-61
2023/10/18 09:39:37;;;;;;;5.00;2.78;;;13.30;70.10;;;;;;4924955;29;20391;-60
2023/10/18 09:42:12;;;;;;;3.10;2.60;;;13.20;69.30;;;;;;4933555;28;20114;-60
2023/10/18 09:44:44;;;;;;;2.63;2.42;;;13.20;69.20;;;;;;4923455;28;20542;-60
2023/10/18 09:47:09;;;;;;;3.40;2.40;;;13.10;68.70;;;;;;4928112;29;20031;-60
2023/10/18 09:49:41;;;;;;;3.67;2.83;;;13.00;68.50;;;;;;4929808;28;20309;-60
2023/10/18 09:52:11;;;;;;;2.90;2.22;;;12.90;69.20;;;;;;4933266;28;20506;-60
2023/10/18 09:54:41;;;;;;;4.22;2.75;;;12.80;69.00;;;;;;4932958;28;20030;-60
2023/10/18 09:57:09;;;;;;;7.75;3.35;;;12.70;69.00;;;;;;4924770;28;20446;-60
2023/10/18 09:59:37;;;;;;;4.15;2.53;;;12.70;69.20;;;;;;4931668;29;20499;-60
2023/10/18 10:02:15;;;;;;;2.95;2.20;;;12.70;69.70;;;;;;4930484;29;20042;-60
2023/10/18 10:04:43;;;;;;;4.35;2.22;;;12.60;68.90;;;;;;4923894;29;20396;-60
2023/10/18 10:09:59;;;;;;;6.90;3.15;;;12.40;69.20;;;;;;4925795;29;20759;-60
2023/10/18 10:12:28;;;;;;;2.65;1.73;;;12.30;68.10;;;;;;4931294;28;20070;-60
2023/10/18 10:14:54;;;;;;;5.32;2.75;;;12.10;68.60;;;;;;4928805;29;20040;-60
2023/10/18 10:17:22;;;;;;;4.90;2.50;;;12.10;69.00;;;;;;4929744;28;20107;-59
2023/10/18 10:19:56;;;;;;;2.75;2.22;;;12.00;69.00;;;;;;4931166;28;20059;-60
2023/10/18 10:22:25;;;;;;;5.68;3.33;;;12.00;69.50;;;;;;4928624;28;20035;-60
2023/10/18 10:25:11;;;;;;;4.75;3.10;;;11.90;69.50;;;;;;4930344;28;20114;-60
2023/10/18 10:30:25;;;;;;;4.47;3.00;;;11.70;69.10;;;;;;4931080;29;19918;-60
2023/10/18 10:33:05;;;;;;;4.55;2.80;;;11.60;69.80;;;;;;4931198;28;20082;-60
2023/10/18 10:35:35;;;;;;;6.55;3.38;;;11.50;70.20;;;;;;4928993;29;20027;-59
2023/10/18 10:38:01;;;;;;;6.72;3.13;;;11.40;70.50;;;;;;4924924;28;20047;-60
2023/10/18 10:43:04;;;;;;;3.75;3.00;;;11.40;70.40;;;;;;4931361;29;20078;-60
2023/10/18 10:45:37;;;;;;;6.25;2.85;;;11.30;70.70;;;;;;4931248;29;20110;-80
2023/10/18 10:48:18;;;;;;;7.47;4.50;;;11.30;70.80;;;;;;4935531;29;20031;-80
2023/10/18 10:50:45;;;;;;;7.35;4.38;;;11.40;71.90;;;;;;4926637;29;20042;-81
2023/10/18 10:53:15;;;;;;;4.35;2.97;;;11.40;71.50;;;;;;4932576;28;20530;-80
2023/10/18 10:55:43;;;;;;;7.22;3.70;;;11.50;70.70;;;;;;4932167;28;20043;-81
2023/10/18 10:58:16;;;;;;;6.25;3.53;;;11.40;70.00;;;;;;4930537;28;20034;-81
2023/10/18 11:01:02;;;;;;;4.85;3.42;;;11.40;70.00;;;;;;4933974;29;20032;-81
2023/10/18 11:03:55;;;;;;;4.53;3.10;;;11.40;70.30;;;;;;4927599;28;20019;-81
2023/10/18 11:06:25;;;;;;;5.22;3.47;;;11.40;70.10;;;;;;4924790;29;20063;-82
2023/10/18 11:08:54;;;;;;;6.85;3.40;;;11.40;69.60;;;;;;4932102;28;20116;-79
2023/10/18 11:11:21;;;;;;;5.32;3.42;;;11.30;69.30;;;;;;4930592;28;20023;-82
2023/10/18 11:13:48;;;;;;;5.72;3.65;;;11.20;69.30;;;;;;4930184;29;20028;-81
2023/10/18 11:16:16;;;;;;;6.13;3.78;;;11.30;69.90;;;;;;4932592;28;20028;-80
2023/10/18 11:18:42;;;;;;;5.60;3.55;;;11.30;69.40;;;;;;4931021;28;20023;-84
2023/10/18 11:24:11;;;;;;;3.97;3.28;;;11.30;69.20;;;;;;4910752;29;20048;-83
2023/10/18 11:26:43;;;;;;;4.32;2.90;;;11.40;69.40;;;;;;4928438;29;20019;-61
2023/10/18 11:29:08;;;;;;;5.28;3.67;;;11.40;69.10;;;;;;4925630;29;20043;-64
2023/10/18 11:31:37;;;;;;;5.53;3.28;;;11.40;69.60;;;;;;4923155;29;20032;-64
2023/10/18 11:34:06;;;;;;;6.20;3.53;;;11.40;69.30;;;;;;4930158;29;20042;-64
2023/10/18 11:36:34;;;;;;;4.45;3.97;;;11.40;68.20;;;;;;4920460;29;20508;-64
2023/10/18 11:39:18;;;;;;;7.93;4.25;;;11.40;67.20;;;;;;4931543;28;20036;-64
2023/10/18 11:41:56;;;;;;;5.03;3.17;;;11.50;67.50;;;;;;4926466;29;20055;-64
2023/10/18 11:44:34;;;;;;;5.82;3.75;;;11.40;68.40;;;;;;4930319;29;20024;-65
2023/10/18 11:47:18;;;;;;;4.18;3.10;;;11.40;67.20;;;;;;4929487;29;20104;-64
2023/10/18 11:49:45;;;;;;;5.35;3.25;;;11.50;67.60;;;;;;4917363;29;20079;-64
2023/10/18 11:52:21;;;;;;;6.25;4.00;;;11.50;67.80;;;;;;4926802;28;20050;-64
2023/10/18 11:54:51;;;;;;;7.38;4.03;;;11.60;66.90;;;;;;4928632;29;20031;-64
2023/10/18 11:57:26;;;;;;;7.28;4.85;;;11.60;66.30;;;;;;4929012;29;20646;-64
2023/10/18 11:59:56;;;;;;;7.47;4.60;;;11.60;65.30;;;;;;4927379;29;20030;-64
2023/10/18 12:02:27;;;;;;;6.45;4.55;;;11.60;65.20;;;;;;4922585;28;20399;-64
2023/10/18 12:04:57;;;;;;;7.78;4.75;;;11.70;65.10;;;;;;4926025;29;20015;-64
2023/10/18 12:07:22;;;;;;;6.55;3.97;;;11.70;64.40;;;;;;4927660;28;20094;-64
2023/10/18 12:09:52;;;;;;;7.47;4.00;;;11.70;64.60;;;;;;4924642;28;20039;-64
2023/10/18 12:12:24;;;;;;;7.60;4.20;;;11.70;64.30;;;;;;4930068;29;20106;-64
2023/10/18 12:14:49;;;;;;;6.25;3.42;;;11.70;64.40;;;;;;4926217;29;20476;-64
2023/10/18 12:17:15;;;;;;;6.40;4.90;;;11.70;64.90;;;;;;4928081;29;20043;-65
2023/10/18 12:19:42;;;;;;;9.48;4.95;;;11.80;66.00;;;;;;4932938;28;20056;-64
2023/10/18 12:22:09;;;;;;;8.88;5.97;;;11.70;66.40;;;;;;4932483;28;20015;-63
2023/10/18 12:24:35;;;;;;;7.30;4.53;;;11.70;65.90;;;;;;4930563;28;20078;-64
2023/10/18 12:27:33;;;;;;;6.63;5.22;;;11.70;66.10;;;;;;4933256;28;20035;-63
2023/10/18 12:30:09;;;;;;;9.90;6.22;;;11.70;66.30;;;;;;4927598;29;20031;-64
2023/10/18 12:32:42;;;;;;;6.82;4.78;;;11.80;66.70;;;;;;4931430;28;20035;-64
2023/10/18 12:35:13;;;;;;;6.28;4.82;;;11.90;67.60;;;;;;4932021;28;20055;-64
2023/10/18 12:37:40;;;;;;;8.27;5.60;;;11.90;67.90;;;;;;4924431;28;20027;-64
2023/10/18 12:40:28;;;;;;;9.63;5.50;;;12.00;68.40;;;;;;4932904;29;20506;-63
2023/10/18 12:42:58;;;;;;;6.57;4.82;;;12.00;69.10;;;;;;4932890;28;20031;-63
2023/10/18 12:45:23;;;;;;;7.68;5.65;;;11.90;68.60;;;;;;4929340;29;20027;-64
2023/10/18 12:47:51;;;;;;;12.43;6.93;;;11.90;69.00;;;;;;4933046;29;20066;-63
2023/10/18 12:50:22;;;;;;;11.18;7.47;;;11.80;69.50;;;;;;4930375;29;20031;-64
2023/10/18 12:53:06;;;;;;;10.82;6.55;;;11.80;69.70;;;;;;4930039;29;20400;-64
2023/10/18 12:55:32;;;;;;;10.52;6.85;;;11.80;69.90;;;;;;4928339;29;20440;-64
2023/10/18 12:57:59;;;;;;;11.05;7.35;;;11.90;70.00;;;;;;4931270;28;20020;-63
2023/10/18 13:00:26;;;;;;;10.95;7.28;;;11.80;69.80;;;;;;4932685;29;20086;-64
2023/10/18 13:05:22;;;;;;;8.55;7.15;;;11.80;70.20;;;;;;4933730;28;20170;-64
2023/10/18 13:07:52;;;;;;;10.43;7.68;;;11.80;70.40;;;;;;4926050;29;20411;-63
2023/10/18 13:10:35;;;;;;;9.57;6.72;;;11.80;70.40;;;;;;4929967;29;20055;-63
2023/10/18 13:13:04;;;;;;;10.32;6.72;;;11.90;70.20;;;;;;4926061;29;20507;-63
2023/10/18 13:15:33;;;;;;;10.85;7.55;;;11.90;70.10;;;;;;4931557;28;20080;-63
2023/10/18 13:17:58;;;;;;;9.48;7.00;;;12.00;69.40;;;;;;4928355;29;20026;-63
2023/10/18 13:20:24;;;;;;;9.48;6.10;;;12.00;69.10;;;;;;4926253;29;20119;-64
2023/10/18 13:22:56;;;;;;;10.05;7.60;;;12.00;69.10;;;;;;4932266;28;20464;-63
2023/10/18 13:25:25;;;;;;;10.48;6.80;;;11.90;69.10;;;;;;4929570;29;20035;-64
2023/10/18 13:27:54;;;;;;;8.85;6.15;;;11.90;68.20;;;;;;4929472;28;20484;-63
2023/10/18 13:30:42;;;;;;;11.05;5.90;;;11.80;68.00;;;;;;4930521;29;20504;-64
2023/10/18 13:33:11;;;;;;;9.13;5.18;;;11.80;68.20;;;;;;4926546;29;20028;-64
2023/10/18 13:35:40;;;;;;;11.02;6.05;;;11.80;68.30;;;;;;4930877;29;20418;-63
2023/10/18 13:38:06;;;;;;;6.85;5.22;;;11.80;68.20;;;;;;4928845;29;20063;-64
2023/10/18 13:40:37;;;;;;;9.98;5.85;;;11.80;68.60;;;;;;4928064;29;20059;-63
2023/10/18 13:43:09;;;;;;;7.60;5.70;;;11.80;67.60;;;;;;4923970;29;20030;-64